Thunder radar more information blitzortung!


Radar de pluja more information rain snow radar


Visita la nostra xarxa de llocs de meteo:

Template documentation
and downloads

And another site



No particular awareness of the weather is required.    There are no Weather-warnings

Pagina Historial Weather Underground text

Diari Resum Juliol 28, 2017 Unitats:  Imperial    Mètric   Tant
« Previous Dia
SegĂźent Dia »
Diari Setmana Mensual Anual Personalitzada
  Maxima: Minima: Media:
Temperatura: 87.4 °F 69.1 °F 79 °F
Punt de rosada: 70.2 °F 63.1 °F 65.5 °F
Humitat: 85 % 47 % 65 %
Wind Speed: 16.1 mph 0 mph 5.1 mph
RĂ fegues de vent: 16.1 mph - -
Vent:- - ESE
Pression baro: 30 in 29.9 in -
Precipitacions: 0 in    
Historical Graphs
 
 
Dades de taula per Juliol 28, 2017
Temps Temperatura Punt de rosada Pression baro Vent Wind Speed RĂ fegues de vent Humitat Rainfall Rate (Hourly)
00:03 75.6 °F 66.4 °F 29.9 in Calm     73 % 0 in
00:05 71.1 °F 65.7 °F 29.9 in Calm     83 % 0 in
00:08 75.6 °F 66.4 °F 29.9 in WSW 1.6 mph 1.6 mph 73 % 0 in
00:13 75.6 °F 66.4 °F 29.9 in WSW 1.6 mph 1.6 mph 73 % 0 in
00:15 70.9 °F 65.5 °F 29.9 in Calm     83 % 0 in
00:18 75.4 °F 66.6 °F 29.9 in WSW 1.2 mph 1.2 mph 74 % 0 in
00:23 75.4 °F 66.6 °F 29.9 in Calm     74 % 0 in
00:25 70.9 °F 65.8 °F 29.9 in Calm     84 % 0 in
00:28 75.2 °F 66.7 °F 29.9 in Calm     75 % 0 in
00:33 75.2 °F 66.4 °F 29.9 in WSW 1.2 mph 1.2 mph 74 % 0 in
00:35 70.7 °F 65.7 °F 30 in Calm     84 % 0 in
00:38 75 °F 66.6 °F 29.9 in WSW 1.2 mph 1.2 mph 75 % 0 in
00:43 74.8 °F 66.4 °F 29.9 in Calm     75 % 0 in
00:45 70.5 °F 65.5 °F 30 in Calm     84 % 0 in
00:48 74.8 °F 66.7 °F 29.9 in Calm     76 % 0 in
00:49 74.8 °F 66.7 °F 29.9 in Calm     76 % 0 in
00:54 74.7 °F 66.6 °F 29.9 in Calm     76 % 0 in
00:55 70.5 °F 65.8 °F 29.9 in Calm     85 % 0 in
00:59 74.8 °F 66.7 °F 29.9 in West 2.3 mph 2.3 mph 76 % 0 in
01:04 74.8 °F 66.7 °F 29.9 in West 1.2 mph   76 % 0 in
01:05 70.5 °F 65.8 °F 29.9 in Calm   1 mph 85 % 0 in
01:09 74.7 °F 66.9 °F 29.9 in Calm     77 % 0 in
01:14 74.7 °F 66.9 °F 29.9 in West 1.4 mph 1.4 mph 77 % 0 in
01:15 70.5 °F 65.8 °F 29.9 in ENE 1 mph 2 mph 85 % 0 in
01:19 74.3 °F 66.6 °F 29.9 in West 1.2 mph 1.2 mph 77 % 0 in
01:24 74.3 °F 66.6 °F 29.9 in ENE 2.3 mph 2.3 mph 77 % 0 in
01:25 74.3 °F 66.6 °F 29.9 in North 1 mph 2 mph 77 % 0 in
01:30 73.9 °F 66.4 °F 29.9 in Calm   2 mph 77 % 0 in
01:35 70.5 °F 65.5 °F 30 in Calm   3 mph 84 % 0 in
01:45 70.5 °F 65.5 °F 30 in Calm   1 mph 84 % 0 in
01:55 70.7 °F 65.7 °F 30 in Calm     84 % 0 in
02:05 70.7 °F 65.7 °F 30 in NW 1 mph 1 mph 84 % 0 in
02:15 70.9 °F 65.8 °F 30 in West 1 mph 1 mph 84 % 0 in
02:25 70.7 °F 65.7 °F 30 in Calm   2 mph 84 % 0 in
02:35 70.7 °F 65.7 °F 30 in WSW 1 mph 2 mph 84 % 0 in
02:45 70.7 °F 65.7 °F 30 in SW 1 mph 2 mph 84 % 0 in
02:55 71.1 °F 66.4 °F 30 in SW 1 mph 2 mph 85 % 0 in
03:05 71.4 °F 66.7 °F 30 in SW 1 mph 2 mph 85 % 0 in
03:15 72 °F 67.3 °F 30 in Calm   1 mph 85 % 0 in
03:25 72.5 °F 67.6 °F 30 in Calm   2 mph 85 % 0 in
03:35 73.2 °F 68.2 °F 30 in South 1 mph 2 mph 84 % 0 in
03:45 74.1 °F 68.4 °F 30 in SSW 1 mph 2 mph 82 % 0 in
03:55 75 °F 68.7 °F 30 in Calm   2 mph 81 % 0 in
04:05 76.1 °F 69.4 °F 30 in SSE 1 mph 2 mph 80 % 0 in
04:15 76.8 °F 69.4 °F 30 in ESE 2 mph 3 mph 78 % 0 in
04:25 77.2 °F 69.1 °F 30 in East 2 mph 3 mph 76 % 0 in
04:35 76.8 °F 68.7 °F 30 in East 2 mph 4 mph 76 % 0 in
04:45 77.7 °F 69.4 °F 30 in ESE 2 mph 4 mph 76 % 0 in
04:55 78.3 °F 69.6 °F 30 in ESE 3 mph 4 mph 75 % 0 in
05:05 79 °F 69.6 °F 30 in East 2 mph 5 mph 73 % 0 in
05:15 80.1 °F 70.2 °F 30 in East 3 mph 4 mph 72 % 0 in
05:25 81.3 °F 70.2 °F 30 in East 2 mph 5 mph 69 % 0 in
05:35 80.8 °F 69.3 °F 30 in ESE 1 mph 5 mph 68 % 0 in
05:45 81.9 °F 69.4 °F 30 in ESE 3 mph 3 mph 66 % 0 in
05:55 81.7 °F 68.7 °F 30 in ENE 1 mph 6 mph 65 % 0 in
06:05 82.9 °F 69.4 °F 30 in ENE 3 mph 5 mph 64 % 0 in
06:15 83.3 °F 68.9 °F 30 in ESE 1 mph 6 mph 62 % 0 in
06:25 83.8 °F 69.4 °F 30 in Calm   3 mph 62 % 0 in
06:35 84.4 °F 69.4 °F 30 in SW 2 mph 3 mph 61 % 0 in
06:45 84.4 °F 69.1 °F 30 in WSW 2 mph 4 mph 60 % 0 in
06:50 84.9 °F 69.1 °F 30 in WSW 3 mph 3 mph 59 % 0 in
06:55 85.1 °F 68.2 °F 30 in WSW 3 mph 3 mph 57 % 0 in
07:00 84.9 °F 67.5 °F 30 in SSE 3 mph 3 mph 56 % 0 in
12:01 84.7 °F 66.7 °F 30 in SSE 3.5 mph 4.5 mph 55 % 0 in
12:06 84.4 °F 66.4 °F 30 in South 6.9 mph 6.9 mph 55 % 0 in
12:11 84.2 °F 65.8 °F 30 in ESE 6.2 mph 6.2 mph 54 % 0 in
12:16 84.9 °F 66.4 °F 30 in East 5.6 mph 5.6 mph 54 % 0 in
12:21 84.9 °F 65.8 °F 30 in East 10.4 mph 10.4 mph 53 % 0 in
12:26 85.3 °F 66.2 °F 30 in ESE 6.4 mph 6.4 mph 53 % 0 in
12:31 85.3 °F 65.7 °F 30 in ESE 8.7 mph 8.7 mph 52 % 0 in
12:36 84.4 °F 64.8 °F 30 in ENE 5.8 mph 5.8 mph 52 % 0 in
12:41 84.4 °F 64.8 °F 30 in ESE 9.2 mph 9.2 mph 52 % 0 in
12:46 84.7 °F 65.1 °F 30 in South 9.4 mph 9.4 mph 52 % 0 in
12:51 85.1 °F 64.9 °F 30 in ESE 8.5 mph 8.5 mph 51 % 0 in
12:56 85.1 °F 65.5 °F 30 in SE 8.1 mph 8.1 mph 52 % 0 in
13:01 86.5 °F 66.4 °F 30 in ESE 7.6 mph 7.6 mph 51 % 0 in
13:06 86.2 °F 65.5 °F 30 in ENE 9.2 mph 9.2 mph 50 % 0 in
13:11 86 °F 64.6 °F 30 in ESE 8.5 mph 8.5 mph 49 % 0 in
13:17 85.3 °F 64.6 °F 30 in East 12.5 mph 12.5 mph 50 % 0 in
13:22 85.3 °F 64.6 °F 30 in ESE 10.9 mph 10.9 mph 50 % 0 in
13:27 86.5 °F 65.1 °F 30 in ESE 8.1 mph 8.1 mph 49 % 0 in
13:32 86.2 °F 64.8 °F 30 in SE 9.2 mph 9.2 mph 49 % 0 in
13:37 85.8 °F 64.6 °F 30 in ESE 10.4 mph 10.4 mph 49 % 0 in
13:42 86.4 °F 64.9 °F 30 in ESE 11.8 mph 11.8 mph 49 % 0 in
13:47 85.8 °F 64.9 °F 30 in South 6.9 mph 6.9 mph 50 % 0 in
13:52 86.7 °F 65.8 °F 29.9 in SE 8.1 mph 8.1 mph 50 % 0 in
13:57 86.4 °F 65.5 °F 29.9 in ESE 9.2 mph 9.2 mph 50 % 0 in
14:02 86 °F 64.6 °F 29.9 in ESE 12.7 mph 12.7 mph 49 % 0 in
14:07 85.3 °F 64.6 °F 29.9 in ESE 8.1 mph 8.1 mph 50 % 0 in
14:12 84.9 °F 64.2 °F 29.9 in East 15 mph 15 mph 50 % 0 in
14:17 84.7 °F 64 °F 29.9 in ESE 11.5 mph 11.5 mph 50 % 0 in
14:22 85.1 °F 64.4 °F 29.9 in ESE 10.5 mph 10.5 mph 50 % 0 in
14:27 85.6 °F 64.9 °F 29.9 in East 6.4 mph 6.4 mph 50 % 0 in
14:32 86 °F 64.6 °F 29.9 in ESE 8.1 mph 8.1 mph 49 % 0 in
14:37 85.8 °F 64.6 °F 29.9 in East 9.2 mph 9.2 mph 49 % 0 in
14:42 86 °F 64.6 °F 29.9 in ENE 6.9 mph 6.9 mph 49 % 0 in
14:47 86 °F 64.6 °F 29.9 in ESE 6 mph 6.4 mph 49 % 0 in
14:52 85.8 °F 64.9 °F 30 in ENE 9.7 mph 9.7 mph 50 % 0 in
14:57 85.5 °F 64.8 °F 30 in ENE 6.4 mph 6.4 mph 50 % 0 in
15:02 86.2 °F 64.8 °F 30 in ESE 10.4 mph 10.4 mph 49 % 0 in
15:07 86.5 °F 65.1 °F 29.9 in SSE 9.2 mph 9.2 mph 49 % 0 in
15:12 87.1 °F 64.9 °F 29.9 in SSW 6.9 mph 6.9 mph 48 % 0 in
15:17 86.4 °F 64.4 °F 29.9 in ESE 12.7 mph 12.7 mph 48 % 0 in
15:22 86.7 °F 64.8 °F 29.9 in SE 8.1 mph 8.1 mph 48 % 0 in
15:27 87.4 °F 65.3 °F 29.9 in SSW 8.1 mph 8.1 mph 48 % 0 in
15:32 87.4 °F 65.3 °F 29.9 in SSE 6.9 mph 6.9 mph 48 % 0 in
15:37 87.1 °F 64.9 °F 29.9 in SE 6.7 mph 6.7 mph 48 % 0 in
15:42 86.4 °F 64.4 °F 29.9 in ESE 9.2 mph 9.2 mph 48 % 0 in
15:47 86.9 °F 64.8 °F 29.9 in ENE 9.2 mph 9.2 mph 48 % 0 in
15:52 86.5 °F 64.6 °F 29.9 in ENE 11.5 mph 11.5 mph 48 % 0 in
15:57 86.9 °F 64.2 °F 29.9 in ENE 12.8 mph 12.8 mph 47 % 0 in
16:02 86.9 °F 64.8 °F 29.9 in ESE 15.2 mph 15.2 mph 48 % 0 in
16:07 85.8 °F 63.9 °F 29.9 in ENE 13.8 mph 13.8 mph 48 % 0 in
16:12 86.2 °F 64.2 °F 29.9 in ESE 9.2 mph 9.2 mph 48 % 0 in
16:17 86.4 °F 64.4 °F 29.9 in East 11.5 mph 11.5 mph 48 % 0 in
16:22 85.8 °F 63.9 °F 29.9 in ESE 16.1 mph 16.1 mph 48 % 0 in
16:27 86 °F 64 °F 29.9 in ESE 11.5 mph 11.5 mph 48 % 0 in
16:32 85.8 °F 63.9 °F 29.9 in East 12.8 mph 12.8 mph 48 % 0 in
16:37 85.6 °F 63.7 °F 29.9 in NNE 10.4 mph 10.4 mph 48 % 0 in
16:42 86.4 °F 64.4 °F 29.9 in ESE 9.2 mph 9.2 mph 48 % 0 in
16:47 85.8 °F 63.9 °F 29.9 in ENE 9.2 mph 9.2 mph 48 % 0 in
16:52 85.6 °F 63.7 °F 29.9 in SSE 10.2 mph 10.2 mph 48 % 0 in
16:57 85.3 °F 63.3 °F 29.9 in ENE 9.7 mph 9.7 mph 48 % 0 in
17:02 85.5 °F 64 °F 29.9 in ESE 11.5 mph 11.5 mph 49 % 0 in
17:07 85.1 °F 63.9 °F 29.9 in ESE 12.7 mph 12.7 mph 49 % 0 in
17:12 84.7 °F 63.5 °F 29.9 in ESE 9.2 mph 9.2 mph 49 % 0 in
17:17 84.7 °F 63.5 °F 29.9 in East 11.5 mph 11.5 mph 49 % 0 in
17:22 84.6 °F 63.3 °F 29.9 in NNE 10.4 mph 10.4 mph 49 % 0 in
17:27 84.9 °F 63.7 °F 29.9 in ENE 10 mph 10 mph 49 % 0 in
17:32 84.6 °F 63.3 °F 29.9 in ESE 8.1 mph 8.1 mph 49 % 0 in
17:42 84.4 °F 63.1 °F 29.9 in NE 10.4 mph 10.4 mph 49 % 0 in
17:47 84 °F 63.9 °F 29.9 in SE 12.7 mph 12.7 mph 51 % 0 in
17:52 84.2 °F 63.5 °F 29.9 in ESE 5.8 mph 5.8 mph 50 % 0 in
17:57 84 °F 63.9 °F 29.9 in ENE 9.2 mph 9.2 mph 51 % 0 in
18:02 83.8 °F 63.9 °F 29.9 in ESE 10.5 mph 10.5 mph 51 % 0 in
18:09 83.5 °F 63.3 °F 29.9 in ESE 9.2 mph 9.2 mph 51 % 0 in
18:14 83.5 °F 63.3 °F 29.9 in East 9.2 mph 9.2 mph 51 % 0 in
18:19 83.5 °F 63.3 °F 29.9 in ESE 11.5 mph 11.5 mph 51 % 0 in
18:24 83.3 °F 63.3 °F 29.9 in ESE 11.5 mph 11.5 mph 51 % 0 in
18:29 82.8 °F 63.3 °F 29.9 in ESE 13.8 mph 13.8 mph 52 % 0 in
18:34 82.8 °F 63.3 °F 29.9 in ESE 11.5 mph 11.5 mph 52 % 0 in
18:39 82.8 °F 63.3 °F 29.9 in ESE 11.2 mph 11.2 mph 52 % 0 in
18:49 82 °F 63.1 °F 29.9 in ESE 8.1 mph 8.1 mph 53 % 0 in
18:54 82 °F 63.1 °F 29.9 in ENE 9.2 mph 9.2 mph 53 % 0 in
18:59 82.2 °F 63.3 °F 29.9 in East 9.2 mph 9.2 mph 53 % 0 in
19:04 82.4 °F 63.5 °F 29.9 in ENE 8.1 mph 8.1 mph 53 % 0 in
19:09 82.2 °F 63.9 °F 29.9 in NNE 6.2 mph 6.2 mph 54 % 0 in
19:10 73.2 °F 66.4 °F 30 in NE 2 mph 3 mph 79 % 0 in
19:14 82 °F 63.9 °F 29.9 in ENE 9.2 mph 9.2 mph 54 % 0 in
19:19 81.9 °F 63.7 °F 29.9 in NNE 6.9 mph 7.1 mph 54 % 0 in
19:20 73 °F 66.6 °F 30 in ENE 3 mph 4 mph 80 % 0 in
19:24 81.9 °F 64 °F 29.9 in ESE 5.8 mph 5.8 mph 55 % 0 in
19:29 82 °F 64.2 °F 29.9 in ENE 4.6 mph 4.6 mph 55 % 0 in
19:30 73 °F 66.6 °F 30 in ENE 2 mph 3 mph 80 % 0 in
19:34 81.7 °F 63.9 °F 29.9 in SE 5.8 mph 5.8 mph 55 % 0 in
19:39 81.7 °F 63.9 °F 29.9 in ENE 5.8 mph 5.8 mph 55 % 0 in
19:40 73 °F 66.9 °F 30 in East 2 mph 5 mph 81 % 0 in
19:44 81 °F 63.9 °F 29.9 in ENE 6.9 mph 6.9 mph 56 % 0 in
19:49 81 °F 64.2 °F 29.9 in NE 4.6 mph 4.6 mph 57 % 0 in
19:50 72.9 °F 66.7 °F 30 in East 2 mph 3 mph 81 % 0 in
19:54 80.6 °F 64 °F 29.9 in ESE 8.1 mph 8.1 mph 57 % 0 in
19:59 80.6 °F 64 °F 29.9 in East 5.8 mph 5.8 mph 57 % 0 in
20:00 72.7 °F 66.2 °F 30 in ENE 1 mph 3 mph 80 % 0 in
20:04 80.6 °F 64 °F 29.9 in ENE 3.5 mph 3.5 mph 57 % 0 in
20:09 80.2 °F 64 °F 29.9 in ESE 6.9 mph 6.9 mph 58 % 0 in
20:10 72.5 °F 66.4 °F 30 in Calm   2 mph 81 % 0 in
20:14 80.1 °F 64.4 °F 29.9 in SE 5.8 mph 5.8 mph 59 % 0 in
20:19 79.9 °F 64.2 °F 29.9 in East 6 mph 6 mph 59 % 0 in
20:20 72.5 °F 66.4 °F 30 in NE 1 mph 2 mph 81 % 0 in
20:24 79.5 °F 63.9 °F 29.9 in SSE 5.8 mph 5.9 mph 59 % 0 in
20:29 79.2 °F 64 °F 29.9 in ESE 6.9 mph 6.9 mph 60 % 0 in
20:30 72.5 °F 66.4 °F 30 in NNE 2 mph 3 mph 81 % 0 in
20:34 79.2 °F 64.6 °F 29.9 in ENE 6.9 mph 6.9 mph 61 % 0 in
20:39 78.8 °F 64.8 °F 29.9 in ENE 5.8 mph 5.8 mph 62 % 0 in
20:40 72.1 °F 66 °F 30 in NNE 2 mph 3 mph 81 % 0 in
20:44 78.6 °F 64.6 °F 29.9 in ESE 4.6 mph 4.6 mph 62 % 0 in
20:49 78.4 °F 64.8 °F 29.9 in ESE 4.6 mph 4.6 mph 63 % 0 in
20:50 72.1 °F 66 °F 30 in NNE 1 mph 3 mph 81 % 0 in
20:54 78.3 °F 64.6 °F 29.9 in ENE 4.7 mph 4.7 mph 63 % 0 in
20:58 78.1 °F 64.6 °F 29.9 in ENE 5.9 mph 5.9 mph 63 % 0 in
21:00 72 °F 65.8 °F 30 in NNE 1 mph 2 mph 81 % 0 in
21:03 77.7 °F 64.6 °F 29.9 in ENE 3.8 mph 3.8 mph 64 % 0 in
21:08 77.5 °F 64.8 °F 29.9 in ENE 6.9 mph 6.9 mph 65 % 0 in
21:10 71.8 °F 66 °F 30 in NNE 2 mph 2 mph 82 % 0 in
21:13 77.2 °F 64.6 °F 29.9 in East 5.8 mph 5.8 mph 65 % 0 in
21:18 77 °F 64.8 °F 29.9 in ENE 5.8 mph 5.8 mph 66 % 0 in
21:20 71.6 °F 65.8 °F 30 in Calm   1 mph 82 % 0 in
21:23 76.8 °F 65.5 °F 29.9 in East 4.6 mph 4.6 mph 68 % 0 in
21:28 76.6 °F 65.7 °F 29.9 in ESE 6.9 mph 6.9 mph 69 % 0 in
21:30 71.6 °F 65.8 °F 30 in Calm   2 mph 82 % 0 in
21:33 76.5 °F 65.8 °F 29.9 in ENE 5.8 mph 5.8 mph 70 % 0 in
21:38 76.3 °F 65.8 °F 29.9 in ENE 6.9 mph 6.9 mph 70 % 0 in
21:40 71.4 °F 66 °F 30 in Calm   1 mph 83 % 0 in
21:43 76.1 °F 65.7 °F 29.9 in ESE 3.5 mph 3.5 mph 70 % 0 in
21:48 75.9 °F 65.5 °F 29.9 in East 6 mph 6 mph 70 % 0 in
21:50 71.2 °F 65.8 °F 30 in NNE 1 mph 1 mph 83 % 0 in
21:53 75.9 °F 65.8 °F 29.9 in ESE 6.9 mph 6.9 mph 71 % 0 in
21:58 75.7 °F 66 °F 29.9 in ENE 4.6 mph 4.6 mph 72 % 0 in
22:00 71.1 °F 65.7 °F 30 in Calm     83 % 0 in
22:03 75.6 °F 65.8 °F 29.9 in ESE 4.6 mph 4.6 mph 72 % 0 in
22:08 75.6 °F 66.4 °F 30 in ENE 4.6 mph 4.6 mph 73 % 0 in
22:10 70.9 °F 65.5 °F 30 in Calm     83 % 0 in
22:13 75.4 °F 66 °F 30 in East 5.9 mph 5.9 mph 73 % 0 in
22:18 75.2 °F 66.4 °F 30 in East 5.8 mph 5.8 mph 74 % 0 in
22:20 70.7 °F 65.3 °F 30 in Calm     83 % 0 in
22:23 75.2 °F 66.4 °F 30 in ESE 6.9 mph 6.9 mph 74 % 0 in
22:28 75.2 °F 66.7 °F 30 in ESE 5.8 mph 5.8 mph 75 % 0 in
22:30 70.5 °F 65.5 °F 30 in Calm   1 mph 84 % 0 in
22:33 75 °F 66.6 °F 30 in NNE 3.5 mph 3.5 mph 75 % 0 in
22:38 74.8 °F 66.4 °F 30 in East 3.5 mph 3.5 mph 75 % 0 in
22:40 70.3 °F 65.3 °F 30 in ENE 1 mph 2 mph 84 % 0 in
22:43 74.7 °F 66.2 °F 30 in ESE 5.8 mph 5.8 mph 75 % 0 in
22:48 74.7 °F 66.2 °F 30 in East 4.6 mph 4.6 mph 75 % 0 in
22:50 70.2 °F 65.1 °F 30 in ENE 1 mph 1 mph 84 % 0 in
22:53 74.5 °F 66 °F 30 in ENE 5.8 mph 5.8 mph 75 % 0 in
22:58 74.5 °F 66.4 °F 30 in ENE 4.7 mph 4.7 mph 76 % 0 in
23:00 70.2 °F 65.1 °F 30 in Calm     84 % 0 in
23:03 74.5 °F 66.4 °F 30 in East 5.8 mph 5.8 mph 76 % 0 in
23:08 74.3 °F 66.2 °F 30 in ENE 2.4 mph 2.4 mph 76 % 0 in
23:10 70 °F 64.9 °F 30 in Calm     84 % 0 in
23:13 74.3 °F 66.2 °F 30 in NE 2.4 mph 2.6 mph 76 % 0 in
23:18 74.1 °F 66 °F 30 in NNE 2.3 mph 2.4 mph 76 % 0 in
23:20 69.8 °F 64.8 °F 30 in ENE 1 mph 2 mph 84 % 0 in
23:23 73.9 °F 65.8 °F 30 in ENE 4.6 mph 4.6 mph 76 % 0 in
23:28 73.9 °F 65.8 °F 30 in NE 3.5 mph 3.5 mph 76 % 0 in
23:30 69.6 °F 64.6 °F 30 in NE 1 mph 1 mph 84 % 0 in
23:33 73.8 °F 65.7 °F 30 in NNE 3.5 mph 3.5 mph 76 % 0 in
23:38 73.6 °F 65.8 °F 30 in ENE 3.5 mph 3.5 mph 77 % 0 in
23:40 69.4 °F 64.4 °F 30 in Calm     84 % 0 in
23:43 73.6 °F 65.8 °F 30 in ENE 3.5 mph 3.5 mph 77 % 0 in
23:48 73.6 °F 65.8 °F 30 in NE 3.5 mph 3.5 mph 77 % 0 in
23:50 69.1 °F 64 °F 30 in SE 1 mph 2 mph 84 % 0 in
23:53 73.4 °F 65.7 °F 30 in NE 4.6 mph 4.6 mph 77 % 0 in
Meteo Sesrovires
Elogis d' Weather Underground - 3.75 mb

Guio original per  Jim McMurry - jmcmurry@mwt.net Adaptat per a la plantilla per  Wim van der Kuil - Leuven-Template.eu

Trobareu la nostra informacio del temps tambe a:

Weather Underground

AWEKAS